createdAt,value
2022-11-24T00:00:29.513Z,5.10
2022-11-24T00:01:29.491Z,5.18
2022-11-24T00:02:29.622Z,5.12
2022-11-24T00:03:29.508Z,5.15
2022-11-24T00:04:29.463Z,5.10
2022-11-24T00:05:29.415Z,5.15
2022-11-24T00:06:29.395Z,5.14
2022-11-24T00:07:29.523Z,5.10
2022-11-24T00:08:29.364Z,4.94
2022-11-24T00:09:29.371Z,5.00
2022-11-24T00:10:29.323Z,5.07
2022-11-24T00:11:29.318Z,5.02
2022-11-24T00:12:29.290Z,4.92
2022-11-24T00:13:29.280Z,4.99
2022-11-24T00:14:29.278Z,4.94
2022-11-24T00:15:29.248Z,4.78
2022-11-24T00:16:29.276Z,4.92
2022-11-24T00:17:29.194Z,4.82
2022-11-24T00:18:29.174Z,4.96
2022-11-24T00:19:29.214Z,4.89
2022-11-24T00:20:29.137Z,4.87
2022-11-24T00:21:29.122Z,4.90
2022-11-24T00:22:29.127Z,4.97
2022-11-24T00:23:29.126Z,4.93
2022-11-24T00:24:29.092Z,4.93
2022-11-24T00:25:29.050Z,4.96
2022-11-24T00:26:29.018Z,5.02
2022-11-24T00:27:30.016Z,5.11
2022-11-24T00:28:28.993Z,5.05
2022-11-24T00:29:29.008Z,5.10
2022-11-24T00:30:29.014Z,5.07
2022-11-24T00:31:28.983Z,5.15
2022-11-24T00:32:28.913Z,5.12
2022-11-24T00:33:28.920Z,5.10
2022-11-24T00:34:28.911Z,5.07
2022-11-24T00:35:28.869Z,5.26
2022-11-24T00:36:28.847Z,5.20
2022-11-24T00:37:28.824Z,5.14
2022-11-24T00:38:28.806Z,5.25
2022-11-24T00:39:28.816Z,5.18
2022-11-24T00:40:34.727Z,5.25
2022-11-24T00:41:30.748Z,5.23
2022-11-24T00:42:28.736Z,5.23
2022-11-24T00:43:28.723Z,5.32
2022-11-24T00:44:28.716Z,5.32
2022-11-24T00:45:28.701Z,5.41
2022-11-24T00:46:28.854Z,5.48
2022-11-24T00:47:28.663Z,5.44
2022-11-24T00:48:28.626Z,5.48
2022-11-24T00:49:28.631Z,5.50
2022-11-24T00:50:28.583Z,5.53
2022-11-24T00:51:28.580Z,5.61
2022-11-24T00:52:28.550Z,5.56
2022-11-24T00:53:28.533Z,5.66
2022-11-24T00:54:28.535Z,5.61
2022-11-24T00:55:28.509Z,5.62
2022-11-24T00:56:28.480Z,5.53
2022-11-24T00:57:28.459Z,5.59
2022-11-24T00:58:28.439Z,5.69
2022-11-24T00:59:28.451Z,5.72
2022-11-24T01:00:28.404Z,5.69
2022-11-24T01:01:28.477Z,5.71
2022-11-24T01:02:28.385Z,5.73
2022-11-24T01:03:28.370Z,5.75
2022-11-24T01:04:28.358Z,5.64
2022-11-24T01:05:28.343Z,5.69
2022-11-24T01:06:28.306Z,5.80
2022-11-24T01:07:28.347Z,5.71
2022-11-24T01:08:28.282Z,5.86
2022-11-24T01:09:28.268Z,5.86
2022-11-24T01:10:28.229Z,5.79
2022-11-24T01:11:28.210Z,5.83
2022-11-24T01:12:28.184Z,5.83
2022-11-24T01:13:28.172Z,5.79
2022-11-24T01:14:28.176Z,5.82
2022-11-24T01:15:28.233Z,5.86
2022-11-24T01:16:28.151Z,5.93
2022-11-24T01:17:28.096Z,5.97
2022-11-24T01:18:28.082Z,5.89
2022-11-24T01:19:28.090Z,5.82
2022-11-24T01:20:28.050Z,5.87
2022-11-24T01:21:28.035Z,5.82
2022-11-24T01:22:28.017Z,5.83
2022-11-24T01:23:28.000Z,5.79
2022-11-24T01:24:27.994Z,5.84
2022-11-24T01:25:27.965Z,5.79
2022-11-24T01:26:27.945Z,5.65
2022-11-24T01:27:27.924Z,5.64
2022-11-24T01:28:27.905Z,5.71
2022-11-24T01:29:27.919Z,5.73
2022-11-24T01:30:27.871Z,5.76
2022-11-24T01:31:27.899Z,5.62
2022-11-24T01:32:27.836Z,5.65
2022-11-24T01:33:27.820Z,5.69
2022-11-24T01:34:27.829Z,5.73
2022-11-24T01:35:27.796Z,5.79
2022-11-24T01:36:27.767Z,5.76
2022-11-24T01:37:27.752Z,5.66
2022-11-24T01:38:27.732Z,5.51
2022-11-24T01:39:27.747Z,5.64
2022-11-24T01:40:27.701Z,5.72
2022-11-24T01:41:27.673Z,5.59
2022-11-24T01:42:27.661Z,5.53
2022-11-24T01:43:27.636Z,5.59
2022-11-24T01:44:27.648Z,5.56
2022-11-24T01:45:27.607Z,5.50
2022-11-24T01:46:27.629Z,5.46
2022-11-24T01:47:27.565Z,5.36
2022-11-24T01:48:27.963Z,5.51
2022-11-24T01:49:27.560Z,5.44
2022-11-24T01:50:27.511Z,5.50
2022-11-24T01:51:27.491Z,5.47
2022-11-24T01:52:27.485Z,5.53
2022-11-24T01:53:27.478Z,5.56
2022-11-24T01:54:27.461Z,5.51
2022-11-24T01:55:27.420Z,5.54
2022-11-24T01:56:27.404Z,5.56
2022-11-24T01:57:27.391Z,5.50
2022-11-24T01:58:27.359Z,5.57
2022-11-24T01:59:27.386Z,5.47
2022-11-24T02:00:27.321Z,5.43
2022-11-24T02:01:27.346Z,5.57
2022-11-24T02:02:27.381Z,5.44
2022-11-24T02:03:27.356Z,5.51
2022-11-24T02:04:27.285Z,5.50
2022-11-24T02:05:27.248Z,5.56
2022-11-24T02:06:27.208Z,5.48
2022-11-24T02:07:27.219Z,5.56
2022-11-24T02:08:27.176Z,5.57
2022-11-24T02:09:27.196Z,5.51
2022-11-24T02:10:27.140Z,5.50
2022-11-24T02:11:27.122Z,5.46
2022-11-24T02:12:27.098Z,5.50
2022-11-24T02:13:27.086Z,5.46
2022-11-24T02:14:27.097Z,5.36
2022-11-24T02:15:27.054Z,5.38
2022-11-24T02:16:27.077Z,5.35
2022-11-24T02:17:27.014Z,5.35
2022-11-24T02:18:26.997Z,5.18
2022-11-24T02:19:26.991Z,5.28
2022-11-24T02:20:26.948Z,5.25
2022-11-24T02:21:26.931Z,5.15
2022-11-24T02:22:26.912Z,5.07
2022-11-24T02:23:26.893Z,5.12
2022-11-24T02:24:26.902Z,5.20
2022-11-24T02:25:26.854Z,5.17
2022-11-24T02:26:26.832Z,5.12
2022-11-24T02:27:26.815Z,5.07
2022-11-24T02:28:26.799Z,5.00
2022-11-24T02:29:26.806Z,5.17
2022-11-24T02:30:26.761Z,5.12
2022-11-24T02:31:26.785Z,5.17
2022-11-24T02:32:26.723Z,5.29
2022-11-24T02:33:26.705Z,5.38
2022-11-24T02:34:26.691Z,5.38
2022-11-24T02:35:26.693Z,5.47
2022-11-24T02:36:26.651Z,5.29
2022-11-24T02:37:26.626Z,5.43
2022-11-24T02:38:26.643Z,5.41
2022-11-24T02:39:26.619Z,5.46
2022-11-24T02:40:26.568Z,5.57
2022-11-24T02:41:26.551Z,5.51
2022-11-24T02:42:26.529Z,5.57
2022-11-24T02:43:26.514Z,5.53
2022-11-24T02:44:26.534Z,5.51
2022-11-24T02:45:26.510Z,5.53
2022-11-24T02:46:26.511Z,5.53
2022-11-24T02:47:26.438Z,5.62
2022-11-24T02:48:26.436Z,5.53
2022-11-24T02:49:26.395Z,5.53
2022-11-24T02:50:26.405Z,5.47
2022-11-24T02:51:26.365Z,5.47
2022-11-24T02:52:26.341Z,5.38
2022-11-24T02:53:26.327Z,5.48
2022-11-24T02:54:26.305Z,5.46
2022-11-24T02:55:26.310Z,5.38
2022-11-24T02:56:26.265Z,5.48
2022-11-24T02:57:26.244Z,5.43
2022-11-24T02:58:26.242Z,5.47
2022-11-24T02:59:26.209Z,5.36
2022-11-24T03:00:26.214Z,5.43
2022-11-24T03:01:26.231Z,5.38
2022-11-24T03:02:26.199Z,5.39
2022-11-24T03:03:26.140Z,5.35
2022-11-24T03:04:26.126Z,5.43
2022-11-24T03:05:26.125Z,5.21
2022-11-24T03:06:26.082Z,5.25
2022-11-24T03:07:26.133Z,5.35
2022-11-24T03:08:26.046Z,5.36
2022-11-24T03:09:26.034Z,5.29
2022-11-24T03:10:26.053Z,5.28
2022-11-24T03:11:25.986Z,5.17
2022-11-24T03:12:25.973Z,5.17
2022-11-24T03:13:25.948Z,5.23
2022-11-24T03:14:25.933Z,5.28
2022-11-24T03:15:25.942Z,5.18
2022-11-24T03:16:25.911Z,5.20
2022-11-24T03:17:25.877Z,5.20
2022-11-24T03:18:25.852Z,5.25
2022-11-24T03:19:25.838Z,5.21
2022-11-24T03:20:25.846Z,5.25
2022-11-24T03:21:25.798Z,5.17
2022-11-24T03:22:25.778Z,5.14
2022-11-24T03:23:25.867Z,5.21
2022-11-24T03:24:25.741Z,5.08
2022-11-24T03:25:25.756Z,5.23
2022-11-24T03:26:25.713Z,5.07
2022-11-24T03:27:25.685Z,5.11
2022-11-24T03:28:25.662Z,5.12
2022-11-24T03:29:25.652Z,5.10
2022-11-24T03:30:25.655Z,5.10
2022-11-24T03:31:25.660Z,5.10
2022-11-24T03:32:25.597Z,5.05
2022-11-24T03:33:25.585Z,5.14
2022-11-24T03:34:25.555Z,5.15
2022-11-24T03:35:25.568Z,5.05
2022-11-24T03:36:25.517Z,5.10
2022-11-24T03:37:25.585Z,5.04
2022-11-24T03:38:25.483Z,5.04
2022-11-24T03:39:25.489Z,5.05
2022-11-24T03:40:25.467Z,4.96
2022-11-24T03:41:25.429Z,5.07
2022-11-24T03:42:25.434Z,5.14
2022-11-24T03:43:25.394Z,5.18
2022-11-24T03:44:25.384Z,5.07
2022-11-24T03:46:27.377Z,5.07
2022-11-24T03:47:25.335Z,5.14
2022-11-24T03:48:25.297Z,5.17
2022-11-24T03:49:25.278Z,5.17
2022-11-24T03:50:25.283Z,5.11
2022-11-24T03:51:25.238Z,5.14
2022-11-24T03:52:25.222Z,5.15
2022-11-24T03:53:25.203Z,5.14
2022-11-24T03:54:25.182Z,5.02
2022-11-24T03:55:25.189Z,5.20
2022-11-24T03:56:25.145Z,5.23
2022-11-24T03:57:25.133Z,5.26
2022-11-24T03:58:25.098Z,5.25
2022-11-24T03:59:26.090Z,5.18
2022-11-24T04:00:25.097Z,5.26
2022-11-24T04:01:25.130Z,5.17
2022-11-24T04:02:25.075Z,5.18
2022-11-24T04:03:25.008Z,5.29
2022-11-24T04:04:25.002Z,5.25
2022-11-24T04:05:25.000Z,5.36
2022-11-24T04:06:24.958Z,5.25
2022-11-24T04:07:24.969Z,5.29
2022-11-24T04:08:24.927Z,5.35
2022-11-24T04:09:24.902Z,5.26
2022-11-24T04:10:24.907Z,5.35
2022-11-24T04:11:24.867Z,5.32
2022-11-24T04:12:24.863Z,5.29
2022-11-24T04:13:24.837Z,5.38
2022-11-24T04:14:24.808Z,5.39
2022-11-24T04:15:24.837Z,5.35
2022-11-24T04:16:24.816Z,5.38
2022-11-24T04:17:24.755Z,5.46
2022-11-24T04:18:24.730Z,5.43
2022-11-24T04:19:24.713Z,5.64
2022-11-24T04:20:24.730Z,5.53
2022-11-24T04:21:24.675Z,5.51
2022-11-24T04:22:24.658Z,5.41
2022-11-24T04:23:24.650Z,5.48
2022-11-24T04:24:24.629Z,5.47
2022-11-24T04:25:24.628Z,5.46
2022-11-24T04:26:24.587Z,5.51
2022-11-24T04:27:25.559Z,5.43
2022-11-24T04:28:24.545Z,5.47
2022-11-24T04:29:24.534Z,5.44
2022-11-24T04:30:24.535Z,5.41
2022-11-24T04:31:24.536Z,5.48
2022-11-24T04:32:24.463Z,5.46
2022-11-24T04:33:24.461Z,5.54
2022-11-24T04:34:24.425Z,5.53
2022-11-24T04:35:24.437Z,5.53
2022-11-24T04:36:24.387Z,5.47
2022-11-24T04:37:24.368Z,5.47
2022-11-24T04:39:23.026Z,5.44
2022-11-24T04:39:28.512Z,5.50
2022-11-24T04:40:25.339Z,5.53
2022-11-24T04:41:24.299Z,5.44
2022-11-24T04:42:24.277Z,5.39
2022-11-24T04:43:24.260Z,5.43
2022-11-24T04:44:24.247Z,5.43
2022-11-24T04:45:24.253Z,5.51
2022-11-24T04:46:24.252Z,5.53
2022-11-24T04:47:24.188Z,5.54
2022-11-24T04:48:24.166Z,5.48
2022-11-24T04:49:24.146Z,5.61
2022-11-24T04:50:24.155Z,5.56
2022-11-24T04:51:24.101Z,5.68
2022-11-24T04:52:25.099Z,5.64
2022-11-24T04:53:24.084Z,5.76
2022-11-24T04:54:24.083Z,5.76
2022-11-24T04:55:24.071Z,5.80
2022-11-24T04:56:24.020Z,5.83
2022-11-24T04:57:24.028Z,5.76
2022-11-24T04:58:23.985Z,5.87
2022-11-24T04:59:23.966Z,5.86
2022-11-24T05:00:23.973Z,5.86
2022-11-24T05:01:23.933Z,5.75
2022-11-24T05:02:23.919Z,5.89
2022-11-24T05:03:23.894Z,5.83
2022-11-24T05:04:23.939Z,5.84
2022-11-24T05:05:23.890Z,5.89
2022-11-24T05:06:23.837Z,5.93
2022-11-24T05:07:23.855Z,5.83
2022-11-24T05:08:23.797Z,5.80
2022-11-24T05:09:32.614Z,5.86
2022-11-24T05:10:24.767Z,5.84
2022-11-24T05:11:23.743Z,5.93
2022-11-24T05:12:23.729Z,5.86
2022-11-24T05:13:23.707Z,5.84
2022-11-24T05:14:23.716Z,5.79
2022-11-24T05:15:23.700Z,5.71
2022-11-24T05:16:23.699Z,5.68
2022-11-24T05:17:23.637Z,5.80
2022-11-24T05:18:23.633Z,5.83
2022-11-24T05:19:26.260Z,5.86
2022-11-24T05:20:23.615Z,5.84
2022-11-24T05:21:23.573Z,5.79
2022-11-24T05:22:23.553Z,5.91
2022-11-24T05:23:23.526Z,5.91
2022-11-24T05:24:23.512Z,5.84
2022-11-24T05:25:23.516Z,5.87
2022-11-24T05:26:23.469Z,5.80
2022-11-24T05:27:23.455Z,5.82
2022-11-24T05:28:23.437Z,5.80
2022-11-24T05:29:23.487Z,5.72
2022-11-24T05:30:23.448Z,5.72
2022-11-24T05:31:23.452Z,5.79
2022-11-24T05:32:23.365Z,5.76
2022-11-24T05:33:23.347Z,5.80
2022-11-24T05:34:23.328Z,5.71
2022-11-24T05:35:23.333Z,5.71
2022-11-24T05:36:23.327Z,5.62
2022-11-24T05:37:23.272Z,5.65
2022-11-24T05:38:23.268Z,5.66
2022-11-24T05:39:23.349Z,5.66
2022-11-24T05:40:23.255Z,5.66
2022-11-24T05:41:23.206Z,5.66
2022-11-24T05:42:23.195Z,5.61
2022-11-24T05:43:23.188Z,5.61
2022-11-24T05:44:23.143Z,5.62
2022-11-24T05:45:23.147Z,5.73
2022-11-24T05:46:23.192Z,5.62
2022-11-24T05:47:23.089Z,5.66
2022-11-24T05:48:23.085Z,5.59
2022-11-24T05:49:23.049Z,5.61
2022-11-24T05:50:23.076Z,5.50
2022-11-24T05:51:23.036Z,5.59
2022-11-24T05:52:23.003Z,5.46
2022-11-24T05:53:22.980Z,5.46
2022-11-24T05:54:22.958Z,5.41
2022-11-24T05:55:22.965Z,5.51
2022-11-24T05:56:23.013Z,5.41
2022-11-24T05:57:22.903Z,5.35
2022-11-24T05:58:22.907Z,5.47
2022-11-24T05:59:22.877Z,5.61
2022-11-24T06:00:22.878Z,5.48
2022-11-24T06:01:22.846Z,5.54
2022-11-24T06:02:22.894Z,5.47
2022-11-24T06:03:22.792Z,5.43
2022-11-24T06:04:22.776Z,5.51
2022-11-24T06:05:22.785Z,5.64
2022-11-24T06:06:22.736Z,5.50
2022-11-24T06:07:22.822Z,5.57
2022-11-24T06:08:25.598Z,5.61
2022-11-24T06:09:23.680Z,5.46
2022-11-24T06:10:22.694Z,5.57
2022-11-24T06:11:22.641Z,5.51
2022-11-24T06:12:22.629Z,5.47
2022-11-24T06:13:22.648Z,5.50
2022-11-24T06:14:22.591Z,5.54
2022-11-24T06:15:22.623Z,5.47
2022-11-24T06:16:22.568Z,5.51
2022-11-24T06:17:22.553Z,5.56
2022-11-24T06:18:22.513Z,5.54
2022-11-24T06:19:22.491Z,5.56
2022-11-24T06:20:22.475Z,5.53
2022-11-24T06:21:22.478Z,5.54
2022-11-24T06:22:22.431Z,5.54
2022-11-24T06:23:22.416Z,5.56
2022-11-24T06:24:22.410Z,5.51
2022-11-24T06:25:22.406Z,5.46
2022-11-24T06:26:22.362Z,5.48
2022-11-24T06:27:22.341Z,5.53
2022-11-24T06:28:22.317Z,5.46
2022-11-24T06:29:22.300Z,5.54
2022-11-24T06:30:22.313Z,5.59
2022-11-24T06:31:22.301Z,5.64
2022-11-24T06:32:22.248Z,5.57
2022-11-24T06:33:22.239Z,5.61
2022-11-24T06:34:22.223Z,5.62
2022-11-24T06:35:22.230Z,5.64
2022-11-24T06:36:22.201Z,5.66
2022-11-24T06:37:22.152Z,5.69
2022-11-24T06:38:24.383Z,5.69
2022-11-24T06:39:23.120Z,5.59
2022-11-24T06:40:22.101Z,5.68
2022-11-24T06:41:22.120Z,5.76
2022-11-24T06:42:22.064Z,5.76
2022-11-24T06:43:22.046Z,5.83
2022-11-24T06:44:22.026Z,5.89
2022-11-24T06:45:22.006Z,5.82
2022-11-24T06:46:22.049Z,5.84
2022-11-24T06:47:21.980Z,5.97
2022-11-24T06:48:21.975Z,5.91
2022-11-24T06:49:21.940Z,5.94
2022-11-24T06:50:21.932Z,5.89
2022-11-24T06:51:21.921Z,5.91
2022-11-24T06:52:21.873Z,5.86
2022-11-24T06:53:21.853Z,5.89
2022-11-24T06:54:21.850Z,5.89
2022-11-24T06:55:21.815Z,6.02
2022-11-24T06:56:21.824Z,5.98
2022-11-24T06:57:21.781Z,6.01
2022-11-24T06:58:21.757Z,5.99
2022-11-24T06:59:21.747Z,6.05
2022-11-24T07:00:21.723Z,6.01
2022-11-24T07:01:21.762Z,6.04
2022-11-24T07:02:21.692Z,6.04
2022-11-24T07:03:21.757Z,6.09
2022-11-24T07:04:21.646Z,6.04
2022-11-24T07:05:21.667Z,6.09
2022-11-24T07:06:21.638Z,6.11
2022-11-24T07:07:21.649Z,6.16
2022-11-24T07:08:21.572Z,6.05
2022-11-24T07:09:21.583Z,6.11
2022-11-24T07:10:21.538Z,6.05
2022-11-24T07:11:21.557Z,6.16
2022-11-24T07:12:21.514Z,6.14
2022-11-24T07:13:21.525Z,6.14
2022-11-24T07:14:21.498Z,6.12
2022-11-24T07:15:21.469Z,6.19
2022-11-24T07:16:21.516Z,6.14
2022-11-24T07:17:21.414Z,6.22
2022-11-24T07:18:21.398Z,6.28
2022-11-24T07:19:24.874Z,6.28
2022-11-24T07:20:22.358Z,6.28
2022-11-24T07:21:21.384Z,6.27
2022-11-24T07:22:21.343Z,6.33
2022-11-24T07:23:21.311Z,6.39
2022-11-24T07:24:21.311Z,6.28
2022-11-24T07:25:21.266Z,6.52
2022-11-24T07:26:21.288Z,6.35
2022-11-24T07:27:21.249Z,6.45
2022-11-24T07:28:21.218Z,6.36
2022-11-24T07:29:21.204Z,6.46
2022-11-24T07:30:21.188Z,6.31
2022-11-24T07:31:21.227Z,6.49
2022-11-24T07:32:21.181Z,6.51
2022-11-24T07:33:22.138Z,6.48
2022-11-24T07:34:21.112Z,6.46
2022-11-24T07:35:21.090Z,6.44
2022-11-24T07:36:21.089Z,6.45
2022-11-24T07:37:21.061Z,6.44
2022-11-24T07:38:21.026Z,6.44
2022-11-24T07:39:21.020Z,6.51
2022-11-24T07:40:20.989Z,6.56
2022-11-24T07:41:21.001Z,6.51
2022-11-24T07:42:20.954Z,6.57
2022-11-24T07:43:20.953Z,6.57
2022-11-24T07:44:20.920Z,6.59
2022-11-24T07:45:20.898Z,6.77
2022-11-24T07:46:20.984Z,6.69
2022-11-24T07:47:20.878Z,6.77
2022-11-24T07:48:20.844Z,6.70
2022-11-24T07:49:20.818Z,6.72
2022-11-24T07:50:20.805Z,6.75
2022-11-24T07:51:20.804Z,6.84
2022-11-24T07:52:20.765Z,6.87
2022-11-24T07:53:20.751Z,6.78
2022-11-24T07:54:20.742Z,6.82
2022-11-24T07:55:20.726Z,6.84
2022-11-24T07:56:20.719Z,6.89
2022-11-24T07:57:20.688Z,6.84
2022-11-24T07:58:20.670Z,6.81
2022-11-24T07:59:20.690Z,6.89
2022-11-24T08:00:20.622Z,6.93
2022-11-24T08:01:20.678Z,6.97
2022-11-24T08:02:20.591Z,6.92
2022-11-24T08:03:20.607Z,6.88
2022-11-24T08:04:20.551Z,6.93
2022-11-24T08:05:20.559Z,6.85
2022-11-24T08:06:27.205Z,6.87
2022-11-24T08:07:22.636Z,6.85
2022-11-24T08:08:20.495Z,6.77
2022-11-24T08:09:20.460Z,6.92
2022-11-24T08:10:20.451Z,6.89
2022-11-24T08:11:20.461Z,6.93
2022-11-24T08:12:20.411Z,6.84
2022-11-24T08:13:20.423Z,7.02
2022-11-24T08:14:20.374Z,6.93
2022-11-24T08:15:20.364Z,6.96
2022-11-24T08:16:20.454Z,7.00
2022-11-24T08:17:20.320Z,7.11
2022-11-24T08:18:20.304Z,7.05
2022-11-24T08:19:20.284Z,7.07
2022-11-24T08:20:20.263Z,7.07
2022-11-24T08:21:20.269Z,6.95
2022-11-24T08:22:20.256Z,7.00
2022-11-24T08:23:20.242Z,7.03
2022-11-24T08:24:20.202Z,6.97
2022-11-24T08:25:20.189Z,7.13
2022-11-24T08:26:20.211Z,7.10
2022-11-24T08:27:20.152Z,7.05
2022-11-24T08:28:20.121Z,7.10
2022-11-24T08:29:20.110Z,7.21
2022-11-24T08:30:20.107Z,7.05
2022-11-24T08:31:20.239Z,7.06
2022-11-24T08:32:22.454Z,7.07
2022-11-24T08:33:21.038Z,7.05
2022-11-24T08:34:20.100Z,7.15
2022-11-24T08:35:19.997Z,7.14
2022-11-24T08:36:20.008Z,7.20
2022-11-24T08:37:19.991Z,7.18
2022-11-24T08:38:19.939Z,7.10
2022-11-24T08:39:19.988Z,7.11
2022-11-24T08:40:19.905Z,7.00
2022-11-24T08:41:19.910Z,7.10
2022-11-24T08:42:19.864Z,7.06
2022-11-24T08:43:19.855Z,7.05
2022-11-24T08:44:19.830Z,6.95
2022-11-24T08:45:21.401Z,7.02
2022-11-24T08:46:20.841Z,7.06
2022-11-24T08:47:19.780Z,7.03
2022-11-24T08:48:19.759Z,6.95
2022-11-24T08:49:19.750Z,6.95
2022-11-24T08:50:19.725Z,7.06
2022-11-24T08:51:19.748Z,6.96
2022-11-24T08:52:19.699Z,7.02
2022-11-24T08:53:19.680Z,7.03
2022-11-24T08:54:19.760Z,7.02
2022-11-24T08:55:19.642Z,6.99
2022-11-24T08:56:19.666Z,7.03
2022-11-24T08:57:21.947Z,6.96
2022-11-24T08:58:20.580Z,7.06
2022-11-24T08:59:19.622Z,7.10
2022-11-24T09:00:19.712Z,7.07
2022-11-24T09:01:20.884Z,6.97
2022-11-24T09:02:20.541Z,6.99
2022-11-24T09:03:19.535Z,7.06
2022-11-24T09:04:19.641Z,7.17
2022-11-24T09:05:50.144Z,7.10
2022-11-24T09:06:21.501Z,7.10
2022-11-24T09:07:19.427Z,7.11
2022-11-24T09:08:19.403Z,7.07
2022-11-24T09:09:19.403Z,7.25
2022-11-24T09:10:19.369Z,7.23
2022-11-24T09:11:19.368Z,7.23
2022-11-24T09:12:19.332Z,7.18
2022-11-24T09:13:19.312Z,7.29
2022-11-24T09:14:19.308Z,7.23
2022-11-24T09:15:19.276Z,7.31
2022-11-24T09:16:19.399Z,7.43
2022-11-24T09:17:19.240Z,7.42
2022-11-24T09:18:19.261Z,7.50
2022-11-24T09:19:19.200Z,7.47
2022-11-24T09:20:19.178Z,7.57
2022-11-24T09:21:19.193Z,7.66
2022-11-24T09:22:19.161Z,7.69
2022-11-24T09:23:19.147Z,7.70
2022-11-24T09:24:19.110Z,7.77
2022-11-24T09:25:19.104Z,7.88
2022-11-24T09:26:19.099Z,7.80
2022-11-24T09:27:19.078Z,7.90
2022-11-24T09:28:19.037Z,7.88
2022-11-24T09:29:19.015Z,7.97
2022-11-24T09:30:19.004Z,7.83
2022-11-24T09:31:19.108Z,7.95
2022-11-24T09:32:18.959Z,7.87
2022-11-24T09:33:18.943Z,7.90
2022-11-24T09:34:18.927Z,7.98
2022-11-24T09:35:18.923Z,7.95
2022-11-24T09:36:18.918Z,8.03
2022-11-24T09:37:18.872Z,7.98
2022-11-24T09:38:18.853Z,8.01
2022-11-24T09:39:18.839Z,8.12
2022-11-24T09:40:18.827Z,8.16
2022-11-24T09:41:18.839Z,8.03
2022-11-24T09:42:19.326Z,8.05
2022-11-24T09:43:18.770Z,8.26
2022-11-24T09:44:18.755Z,8.15
2022-11-24T09:45:35.416Z,8.19
2022-11-24T09:46:20.783Z,8.15
2022-11-24T09:47:18.718Z,8.26
2022-11-24T09:48:18.684Z,8.28
2022-11-24T09:49:18.683Z,8.31
2022-11-24T09:50:18.647Z,8.37
2022-11-24T09:51:18.630Z,8.30
2022-11-24T09:52:18.639Z,8.37
2022-11-24T09:53:18.605Z,8.38
2022-11-24T09:54:18.576Z,8.48
2022-11-24T09:55:18.567Z,8.45
2022-11-24T09:56:18.546Z,8.53
2022-11-24T09:57:18.561Z,8.44
2022-11-24T09:58:18.524Z,8.56
2022-11-24T09:59:18.517Z,8.49
2022-11-24T10:00:18.513Z,8.46
2022-11-24T10:01:18.522Z,8.49
2022-11-24T10:02:18.471Z,8.49
2022-11-24T10:03:18.427Z,8.48
2022-11-24T10:04:18.457Z,8.46
2022-11-24T10:05:18.388Z,8.69
2022-11-24T10:06:18.379Z,8.52
2022-11-24T10:07:18.611Z,8.60
2022-11-24T10:08:18.342Z,8.60
2022-11-24T10:09:18.321Z,8.66
2022-11-24T10:10:24.310Z,8.73
2022-11-24T10:11:20.283Z,8.64
2022-11-24T10:12:18.297Z,8.56
2022-11-24T10:13:18.249Z,8.64
2022-11-24T10:14:18.246Z,8.76
2022-11-24T10:15:18.218Z,8.85
2022-11-24T10:16:18.245Z,8.81
2022-11-24T10:17:18.204Z,8.88
2022-11-24T10:18:18.168Z,8.89
2022-11-24T10:19:18.143Z,9.02
2022-11-24T10:20:18.214Z,8.85
2022-11-24T10:21:18.103Z,8.95
2022-11-24T10:22:19.117Z,8.95
2022-11-24T10:23:18.074Z,8.82
2022-11-24T10:24:18.049Z,8.78
2022-11-24T10:25:18.037Z,8.89
2022-11-24T10:26:18.018Z,9.16
2022-11-24T10:27:18.028Z,9.25
2022-11-24T10:28:18.008Z,9.31
2022-11-24T10:29:17.963Z,9.29
2022-11-24T10:30:18.001Z,9.32
2022-11-24T10:31:18.038Z,9.39
2022-11-24T10:32:17.904Z,9.36
2022-11-24T10:33:17.919Z,9.58
2022-11-24T10:34:17.869Z,9.41
2022-11-24T10:35:17.858Z,9.48
2022-11-24T10:36:17.833Z,9.25
2022-11-24T10:37:17.837Z,9.23
2022-11-24T10:38:17.795Z,9.25
2022-11-24T10:39:17.772Z,9.25
2022-11-24T10:40:55.872Z,9.13
2022-11-24T10:41:19.739Z,9.16
2022-11-24T10:42:17.758Z,9.41
2022-11-24T10:43:17.704Z,9.32
2022-11-24T10:44:17.733Z,9.18
2022-11-24T10:45:17.669Z,9.08
2022-11-24T10:46:17.670Z,9.02
2022-11-24T10:47:17.645Z,9.00
2022-11-24T10:48:17.623Z,9.11
2022-11-24T10:49:17.579Z,9.25
2022-11-24T10:50:17.557Z,9.26
2022-11-24T10:51:17.538Z,9.00
2022-11-24T10:52:17.522Z,8.89
2022-11-24T10:53:17.527Z,8.88
2022-11-24T10:54:17.475Z,8.78
2022-11-24T10:55:17.454Z,8.82
2022-11-24T10:56:17.443Z,8.76
2022-11-24T10:57:17.446Z,8.61
2022-11-24T10:58:17.422Z,8.63
2022-11-24T10:59:17.433Z,8.64
2022-11-24T11:00:17.360Z,8.69
2022-11-24T11:01:17.397Z,8.84
2022-11-24T11:02:17.413Z,8.78
2022-11-24T11:03:17.300Z,8.79
2022-11-24T11:04:17.282Z,8.92
2022-11-24T11:05:17.265Z,9.11
2022-11-24T11:06:17.280Z,9.39
2022-11-24T11:07:17.281Z,9.39
2022-11-24T11:08:17.214Z,9.55
2022-11-24T11:09:17.195Z,9.82
2022-11-24T11:10:17.167Z,9.84
2022-11-24T11:11:17.221Z,9.80
2022-11-24T11:12:45.817Z,9.84
2022-11-24T11:13:19.112Z,9.72
2022-11-24T11:14:17.101Z,9.64
2022-11-24T11:15:17.070Z,9.74
2022-11-24T11:16:17.208Z,9.76
2022-11-24T11:17:17.056Z,9.94
2022-11-24T11:18:17.024Z,9.94
2022-11-24T11:19:47.201Z,9.83
2022-11-24T11:20:18.993Z,9.73
2022-11-24T11:21:17.024Z,9.68
2022-11-24T11:22:16.969Z,9.59
2022-11-24T11:23:16.911Z,9.62
2022-11-24T11:24:16.895Z,9.56
2022-11-24T11:25:16.891Z,9.76
2022-11-24T11:26:16.932Z,9.73
2022-11-24T11:27:16.858Z,9.74
2022-11-24T11:28:18.416Z,9.73
2022-11-24T11:31:20.931Z,9.83
2022-11-24T11:34:25.222Z,9.92
2022-11-24T11:35:18.682Z,9.82
2022-11-24T11:36:16.666Z,9.79
2022-11-24T11:37:16.661Z,9.74
2022-11-24T11:38:16.637Z,9.83
2022-11-24T11:39:16.595Z,9.83
2022-11-24T11:40:16.579Z,9.82
2022-11-24T11:41:16.550Z,9.79
2022-11-24T11:42:37.826Z,9.64
2022-11-24T11:43:18.527Z,9.76
2022-11-24T11:44:16.494Z,9.83
2022-11-24T11:45:16.562Z,9.64
2022-11-24T11:46:16.654Z,9.62
2022-11-24T11:47:16.492Z,9.56
2022-11-24T11:48:17.410Z,9.68
2022-11-24T11:49:16.391Z,9.54
2022-11-24T11:50:16.464Z,9.43
2022-11-24T11:51:23.425Z,9.28
2022-11-24T11:52:18.360Z,9.32
2022-11-24T11:53:16.308Z,9.37
2022-11-24T11:54:16.285Z,9.34
2022-11-24T11:55:16.269Z,9.32
2022-11-24T11:56:16.252Z,9.51
2022-11-24T11:57:16.258Z,9.66
2022-11-24T11:58:16.215Z,9.74
2022-11-24T11:59:16.195Z,9.66
2022-11-24T12:00:16.174Z,9.77
2022-11-24T12:01:16.153Z,9.86
2022-11-24T12:02:16.192Z,9.83
2022-11-24T12:03:16.249Z,9.74
2022-11-24T12:04:16.150Z,9.91
2022-11-24T12:05:16.078Z,9.94
2022-11-24T12:06:16.072Z,9.89
2022-11-24T12:07:16.109Z,9.80
2022-11-24T12:08:20.739Z,9.80
2022-11-24T12:09:20.617Z,9.86
2022-11-24T12:10:16.995Z,9.94
2022-11-24T12:11:15.963Z,9.98
2022-11-24T12:12:15.983Z,9.87
2022-11-24T12:13:15.916Z,9.77
2022-11-24T12:14:16.906Z,9.76
2022-11-24T12:15:15.883Z,9.56
2022-11-24T12:16:15.910Z,9.43
2022-11-24T12:17:15.890Z,9.46
2022-11-24T12:18:40.193Z,9.59
2022-11-24T12:19:17.804Z,9.54
2022-11-24T12:20:15.813Z,9.39
2022-11-24T12:21:17.935Z,9.44
2022-11-24T12:22:16.747Z,9.39
2022-11-24T12:23:15.719Z,9.55
2022-11-24T12:24:15.748Z,9.59
2022-11-24T12:25:15.709Z,9.59
2022-11-24T12:26:15.662Z,9.59
2022-11-24T12:27:19.467Z,9.50
2022-11-24T12:28:17.639Z,9.64
2022-11-24T12:29:15.608Z,9.36
2022-11-24T12:30:15.580Z,9.44
2022-11-24T12:31:15.621Z,9.44
2022-11-24T12:32:15.571Z,9.47
2022-11-24T12:33:15.522Z,9.61
2022-11-24T12:34:15.516Z,9.43
2022-11-24T12:35:15.493Z,9.44
2022-11-24T12:36:15.462Z,9.59
2022-11-24T12:37:15.471Z,9.61
2022-11-24T12:38:15.438Z,9.65
2022-11-24T12:39:15.411Z,9.68
2022-11-24T12:40:15.380Z,9.56
2022-11-24T12:41:40.456Z,9.43
2022-11-24T12:42:17.369Z,9.43
2022-11-24T12:43:15.325Z,9.40
2022-11-24T12:44:15.299Z,9.40
2022-11-24T12:45:15.284Z,9.40
2022-11-24T12:46:17.442Z,9.21
2022-11-24T12:47:16.290Z,9.26
2022-11-24T12:48:15.218Z,9.23
2022-11-24T12:49:15.212Z,9.25
2022-11-24T12:50:15.188Z,9.47
2022-11-24T12:51:15.176Z,9.43
2022-11-24T12:52:15.189Z,9.44
2022-11-24T12:53:15.127Z,9.32
2022-11-24T12:54:15.113Z,9.48
2022-11-24T12:55:15.076Z,9.34
2022-11-24T12:56:16.081Z,9.41
2022-11-24T12:57:15.103Z,9.21
2022-11-24T12:58:15.040Z,9.29
2022-11-24T12:59:15.032Z,9.36
2022-11-24T13:00:15.012Z,9.41
2022-11-24T13:01:16.876Z,9.58
2022-11-24T13:02:16.136Z,9.64
2022-11-24T13:03:15.037Z,9.65
2022-11-24T13:04:14.931Z,9.84
2022-11-24T13:05:14.906Z,9.89
2022-11-24T13:06:14.906Z,10.01
2022-11-24T13:07:14.930Z,9.99
2022-11-24T13:08:14.854Z,9.91
2022-11-24T13:09:14.843Z,9.87
2022-11-24T13:10:14.817Z,9.92
2022-11-24T13:11:14.796Z,10.02
2022-11-24T13:12:14.821Z,10.07
2022-11-24T13:13:14.764Z,9.94
2022-11-24T13:14:14.757Z,9.86
2022-11-24T13:15:36.202Z,9.69
2022-11-24T13:17:42.100Z,9.80
2022-11-24T13:18:16.714Z,9.91
2022-11-24T13:19:14.648Z,9.92
2022-11-24T13:20:14.629Z,9.91
2022-11-24T13:21:14.608Z,9.87
2022-11-24T13:22:14.616Z,9.89
2022-11-24T13:23:15.148Z,9.91
2022-11-24T13:25:15.540Z,9.92